Cullera, Spain
Current Conditions -  °F | °C
As of 2:00 PM on Saturday 22 Nov 2014 (Local Time) from LEVC Reporting Station
Broken Clouds Broken Clouds  
Wind Chill: 66°   Ceiling: 2600
Heat Index: 66°   Visibility: 6mi
Dew Point: 59°   Wind: 1mph
Humidity: 78%   Direction: NA
Pressure: 30"   Gusts: NA
Location:  39.17°N, 0.25°W
Report Text: LEVC 221300Z VRB01KT 9999 FEW015 BKN026 19/15 Q1016 NOSIG
Loading
Personal Weather Stations






























Interactive Weather Map New forecast layout! Learn more

10-Day Weather Forecast

Advertisements
Track Severe Weather on mobile